sensor_id;sensor_type;location;lat;lon;timestamp;temperature;humidity
8420;DHT22;4247;48.550;8.822;2022-09-09T00:01:43;15.30;99.90
8420;DHT22;4247;48.550;8.822;2022-09-09T00:04:21;15.40;99.90
8420;DHT22;4247;48.550;8.822;2022-09-09T00:06:59;15.40;99.90
8420;DHT22;4247;48.550;8.822;2022-09-09T00:09:40;15.40;99.90
8420;DHT22;4247;48.550;8.822;2022-09-09T00:12:11;15.50;99.90
8420;DHT22;4247;48.550;8.822;2022-09-09T00:14:45;15.40;99.90
8420;DHT22;4247;48.550;8.822;2022-09-09T00:17:21;15.50;99.90
8420;DHT22;4247;48.550;8.822;2022-09-09T00:20:12;15.50;99.90
8420;DHT22;4247;48.550;8.822;2022-09-09T00:22:46;15.50;99.90
8420;DHT22;4247;48.550;8.822;2022-09-09T00:25:18;15.50;99.90
8420;DHT22;4247;48.550;8.822;2022-09-09T00:27:48;15.50;99.90
8420;DHT22;4247;48.550;8.822;2022-09-09T00:30:18;15.50;99.90
8420;DHT22;4247;48.550;8.822;2022-09-09T00:32:49;15.60;99.90
8420;DHT22;4247;48.550;8.822;2022-09-09T00:35:18;15.60;99.90
8420;DHT22;4247;48.550;8.822;2022-09-09T00:37:53;15.60;99.90
8420;DHT22;4247;48.550;8.822;2022-09-09T00:40:32;15.60;99.90
8420;DHT22;4247;48.550;8.822;2022-09-09T00:43:25;15.60;99.90
8420;DHT22;4247;48.550;8.822;2022-09-09T00:46:10;15.60;99.90
8420;DHT22;4247;48.550;8.822;2022-09-09T00:48:49;15.60;99.90
8420;DHT22;4247;48.550;8.822;2022-09-09T00:51:25;15.60;99.90
8420;DHT22;4247;48.550;8.822;2022-09-09T00:54:13;15.60;99.90
8420;DHT22;4247;48.550;8.822;2022-09-09T00:56:47;15.60;99.90
8420;DHT22;4247;48.550;8.822;2022-09-09T00:59:24;15.50;99.90
8420;DHT22;4247;48.550;8.822;2022-09-09T01:01:53;15.50;99.90
8420;DHT22;4247;48.550;8.822;2022-09-09T01:04:26;15.50;99.90
8420;DHT22;4247;48.550;8.822;2022-09-09T01:07:04;15.40;99.90
8420;DHT22;4247;48.550;8.822;2022-09-09T01:09:45;15.40;99.90
8420;DHT22;4247;48.550;8.822;2022-09-09T01:12:24;15.40;99.90
8420;DHT22;4247;48.550;8.822;2022-09-09T01:14:57;15.30;99.90
8420;DHT22;4247;48.550;8.822;2022-09-09T01:17:32;15.30;99.90
8420;DHT22;4247;48.550;8.822;2022-09-09T01:20:05;15.30;99.90
8420;DHT22;4247;48.550;8.822;2022-09-09T01:22:36;15.20;99.90
8420;DHT22;4247;48.550;8.822;2022-09-09T01:28:06;15.20;99.90
8420;DHT22;4247;48.550;8.822;2022-09-09T01:30:38;15.10;99.90
8420;DHT22;4247;48.550;8.822;2022-09-09T01:33:12;15.10;99.90
8420;DHT22;4247;48.550;8.822;2022-09-09T01:36:00;15.00;99.90
8420;DHT22;4247;48.550;8.822;2022-09-09T01:38:29;15.00;99.90
8420;DHT22;4247;48.550;8.822;2022-09-09T01:40:56;15.00;99.90
8420;DHT22;4247;48.550;8.822;2022-09-09T01:43:29;15.10;99.90
8420;DHT22;4247;48.550;8.822;2022-09-09T01:45:59;15.00;99.90
8420;DHT22;4247;48.550;8.822;2022-09-09T01:48:28;14.90;99.90
8420;DHT22;4247;48.550;8.822;2022-09-09T01:50:55;14.90;99.90
8420;DHT22;4247;48.550;8.822;2022-09-09T01:53:22;14.80;99.90
8420;DHT22;4247;48.550;8.822;2022-09-09T01:55:58;14.80;99.90
8420;DHT22;4247;48.550;8.822;2022-09-09T01:58:34;14.80;99.90
8420;DHT22;4247;48.550;8.822;2022-09-09T02:01:08;14.80;99.90
8420;DHT22;4247;48.550;8.822;2022-09-09T02:03:41;14.70;99.90
8420;DHT22;4247;48.550;8.822;2022-09-09T02:06:23;14.70;99.90
8420;DHT22;4247;48.550;8.822;2022-09-09T02:08:55;14.70;99.90
8420;DHT22;4247;48.550;8.822;2022-09-09T02:11:23;14.60;99.90
8420;DHT22;4247;48.550;8.822;2022-09-09T02:13:56;14.60;99.90
8420;DHT22;4247;48.550;8.822;2022-09-09T02:16:30;14.50;99.90
8420;DHT22;4247;48.550;8.822;2022-09-09T02:19:02;14.50;99.90
8420;DHT22;4247;48.550;8.822;2022-09-09T02:21:33;14.40;99.90
8420;DHT22;4247;48.550;8.822;2022-09-09T02:24:04;14.30;99.90
8420;DHT22;4247;48.550;8.822;2022-09-09T02:26:39;14.30;99.90
8420;DHT22;4247;48.550;8.822;2022-09-09T02:29:12;14.30;99.90
8420;DHT22;4247;48.550;8.822;2022-09-09T02:31:42;14.20;99.90
8420;DHT22;4247;48.550;8.822;2022-09-09T02:34:11;14.20;99.90
8420;DHT22;4247;48.550;8.822;2022-09-09T02:36:42;14.20;99.90
8420;DHT22;4247;48.550;8.822;2022-09-09T02:39:11;14.20;99.90
8420;DHT22;4247;48.550;8.822;2022-09-09T02:41:40;14.10;99.90
8420;DHT22;4247;48.550;8.822;2022-09-09T02:44:11;14.10;99.90
8420;DHT22;4247;48.550;8.822;2022-09-09T02:46:53;14.10;99.90
8420;DHT22;4247;48.550;8.822;2022-09-09T02:49:28;14.10;99.90
8420;DHT22;4247;48.550;8.822;2022-09-09T02:52:02;14.10;99.90
8420;DHT22;4247;48.550;8.822;2022-09-09T02:54:32;14.10;99.90
8420;DHT22;4247;48.550;8.822;2022-09-09T02:57:08;14.10;99.90
8420;DHT22;4247;48.550;8.822;2022-09-09T02:59:38;14.10;99.90
8420;DHT22;4247;48.550;8.822;2022-09-09T03:02:05;14.00;99.90
8420;DHT22;4247;48.550;8.822;2022-09-09T03:04:32;14.00;99.90
8420;DHT22;4247;48.550;8.822;2022-09-09T03:06:59;14.00;99.90
8420;DHT22;4247;48.550;8.822;2022-09-09T03:09:29;14.00;99.90
8420;DHT22;4247;48.550;8.822;2022-09-09T03:11:56;14.00;99.90
8420;DHT22;4247;48.550;8.822;2022-09-09T03:14:23;14.00;99.90
8420;DHT22;4247;48.550;8.822;2022-09-09T03:16:52;14.00;99.90
8420;DHT22;4247;48.550;8.822;2022-09-09T03:19:20;13.90;99.90
8420;DHT22;4247;48.550;8.822;2022-09-09T03:21:49;13.90;99.90
8420;DHT22;4247;48.550;8.822;2022-09-09T03:24:16;13.90;99.90
8420;DHT22;4247;48.550;8.822;2022-09-09T03:26:43;13.90;99.90
8420;DHT22;4247;48.550;8.822;2022-09-09T03:29:11;13.90;99.90
8420;DHT22;4247;48.550;8.822;2022-09-09T03:31:39;13.90;99.90
8420;DHT22;4247;48.550;8.822;2022-09-09T03:34:08;13.90;99.90
8420;DHT22;4247;48.550;8.822;2022-09-09T03:36:36;13.90;99.90
8420;DHT22;4247;48.550;8.822;2022-09-09T03:39:03;13.90;99.90
8420;DHT22;4247;48.550;8.822;2022-09-09T03:41:30;13.80;99.90
8420;DHT22;4247;48.550;8.822;2022-09-09T03:43:57;13.80;99.90
8420;DHT22;4247;48.550;8.822;2022-09-09T03:46:25;13.80;99.90
8420;DHT22;4247;48.550;8.822;2022-09-09T03:48:52;13.80;99.90
8420;DHT22;4247;48.550;8.822;2022-09-09T03:51:21;13.80;99.90
8420;DHT22;4247;48.550;8.822;2022-09-09T03:53:48;13.80;99.90
8420;DHT22;4247;48.550;8.822;2022-09-09T03:56:15;13.90;99.90
8420;DHT22;4247;48.550;8.822;2022-09-09T03:58:41;13.80;99.90
8420;DHT22;4247;48.550;8.822;2022-09-09T04:01:11;13.90;99.90
8420;DHT22;4247;48.550;8.822;2022-09-09T04:03:39;13.90;99.90
8420;DHT22;4247;48.550;8.822;2022-09-09T04:06:08;14.00;99.90
8420;DHT22;4247;48.550;8.822;2022-09-09T04:08:39;14.00;99.90
8420;DHT22;4247;48.550;8.822;2022-09-09T04:11:07;14.10;99.90
8420;DHT22;4247;48.550;8.822;2022-09-09T04:13:34;14.10;99.90
8420;DHT22;4247;48.550;8.822;2022-09-09T04:16:03;14.20;99.90
8420;DHT22;4247;48.550;8.822;2022-09-09T04:18:31;14.20;99.90
8420;DHT22;4247;48.550;8.822;2022-09-09T04:20:58;14.20;99.90
8420;DHT22;4247;48.550;8.822;2022-09-09T04:23:26;14.20;99.90
8420;DHT22;4247;48.550;8.822;2022-09-09T04:25:56;14.30;99.90
8420;DHT22;4247;48.550;8.822;2022-09-09T04:28:26;14.30;99.90
8420;DHT22;4247;48.550;8.822;2022-09-09T04:30:53;14.30;99.90
8420;DHT22;4247;48.550;8.822;2022-09-09T04:33:20;14.40;99.90
8420;DHT22;4247;48.550;8.822;2022-09-09T04:35:48;14.40;99.90
8420;DHT22;4247;48.550;8.822;2022-09-09T04:38:16;14.50;99.90
8420;DHT22;4247;48.550;8.822;2022-09-09T04:40:45;14.50;99.90
8420;DHT22;4247;48.550;8.822;2022-09-09T04:43:14;14.50;99.90
8420;DHT22;4247;48.550;8.822;2022-09-09T04:45:42;14.50;99.90
8420;DHT22;4247;48.550;8.822;2022-09-09T04:48:09;14.50;99.90
8420;DHT22;4247;48.550;8.822;2022-09-09T04:50:36;14.60;99.90
8420;DHT22;4247;48.550;8.822;2022-09-09T04:53:04;14.60;99.90
8420;DHT22;4247;48.550;8.822;2022-09-09T04:55:31;14.60;99.90
8420;DHT22;4247;48.550;8.822;2022-09-09T04:58:03;14.60;99.90
8420;DHT22;4247;48.550;8.822;2022-09-09T05:00:31;14.60;99.90
8420;DHT22;4247;48.550;8.822;2022-09-09T05:03:02;14.60;99.90
8420;DHT22;4247;48.550;8.822;2022-09-09T05:05:29;14.60;99.90
8420;DHT22;4247;48.550;8.822;2022-09-09T05:08:01;14.60;99.90
8420;DHT22;4247;48.550;8.822;2022-09-09T05:10:28;14.60;99.90
8420;DHT22;4247;48.550;8.822;2022-09-09T05:12:55;14.60;99.90
8420;DHT22;4247;48.550;8.822;2022-09-09T05:15:22;14.60;99.90
8420;DHT22;4247;48.550;8.822;2022-09-09T05:17:50;14.60;99.90
8420;DHT22;4247;48.550;8.822;2022-09-09T05:20:18;14.60;99.90
8420;DHT22;4247;48.550;8.822;2022-09-09T05:22:45;14.60;99.90
8420;DHT22;4247;48.550;8.822;2022-09-09T05:25:12;14.60;99.90
8420;DHT22;4247;48.550;8.822;2022-09-09T05:27:39;14.70;99.90
8420;DHT22;4247;48.550;8.822;2022-09-09T05:30:10;14.80;99.90
8420;DHT22;4247;48.550;8.822;2022-09-09T05:32:37;14.80;99.90
8420;DHT22;4247;48.550;8.822;2022-09-09T05:35:06;14.80;99.90
8420;DHT22;4247;48.550;8.822;2022-09-09T05:37:34;14.90;99.90
8420;DHT22;4247;48.550;8.822;2022-09-09T05:40:01;15.00;99.90
8420;DHT22;4247;48.550;8.822;2022-09-09T05:42:32;15.00;99.90
8420;DHT22;4247;48.550;8.822;2022-09-09T05:44:59;15.00;99.90
8420;DHT22;4247;48.550;8.822;2022-09-09T05:47:26;15.00;99.90
8420;DHT22;4247;48.550;8.822;2022-09-09T05:49:54;15.10;99.90
8420;DHT22;4247;48.550;8.822;2022-09-09T05:52:23;15.10;99.90
8420;DHT22;4247;48.550;8.822;2022-09-09T05:54:51;15.20;99.90
8420;DHT22;4247;48.550;8.822;2022-09-09T05:57:19;15.20;99.90
8420;DHT22;4247;48.550;8.822;2022-09-09T05:59:46;15.30;99.90
8420;DHT22;4247;48.550;8.822;2022-09-09T06:02:13;15.30;99.90
8420;DHT22;4247;48.550;8.822;2022-09-09T06:04:41;15.40;99.90
8420;DHT22;4247;48.550;8.822;2022-09-09T06:07:08;15.40;99.90
8420;DHT22;4247;48.550;8.822;2022-09-09T06:09:36;15.40;99.90
8420;DHT22;4247;48.550;8.822;2022-09-09T06:12:04;15.50;99.90
8420;DHT22;4247;48.550;8.822;2022-09-09T06:14:30;15.60;99.90
8420;DHT22;4247;48.550;8.822;2022-09-09T06:16:57;15.60;99.90
8420;DHT22;4247;48.550;8.822;2022-09-09T06:19:24;15.70;99.90
8420;DHT22;4247;48.550;8.822;2022-09-09T06:21:51;15.70;99.90
8420;DHT22;4247;48.550;8.822;2022-09-09T06:24:18;15.80;99.90
8420;DHT22;4247;48.550;8.822;2022-09-09T06:26:47;15.80;99.90
8420;DHT22;4247;48.550;8.822;2022-09-09T06:29:14;15.90;99.90
8420;DHT22;4247;48.550;8.822;2022-09-09T06:31:41;16.00;99.90
8420;DHT22;4247;48.550;8.822;2022-09-09T06:34:09;16.00;99.90
8420;DHT22;4247;48.550;8.822;2022-09-09T06:36:37;16.10;99.90
8420;DHT22;4247;48.550;8.822;2022-09-09T06:39:05;16.10;99.90
8420;DHT22;4247;48.550;8.822;2022-09-09T06:41:33;16.20;99.90
8420;DHT22;4247;48.550;8.822;2022-09-09T06:44:01;16.20;99.90
8420;DHT22;4247;48.550;8.822;2022-09-09T06:46:29;16.30;99.90
8420;DHT22;4247;48.550;8.822;2022-09-09T06:48:59;16.40;99.90
8420;DHT22;4247;48.550;8.822;2022-09-09T06:51:28;16.40;99.90
8420;DHT22;4247;48.550;8.822;2022-09-09T06:53:58;16.50;99.90
8420;DHT22;4247;48.550;8.822;2022-09-09T06:56:32;16.50;99.90
8420;DHT22;4247;48.550;8.822;2022-09-09T06:59:03;16.60;99.90
8420;DHT22;4247;48.550;8.822;2022-09-09T07:01:33;16.60;99.90
8420;DHT22;4247;48.550;8.822;2022-09-09T07:04:01;16.70;99.90
8420;DHT22;4247;48.550;8.822;2022-09-09T07:06:31;16.80;99.90
8420;DHT22;4247;48.550;8.822;2022-09-09T07:08:59;16.90;99.90
8420;DHT22;4247;48.550;8.822;2022-09-09T07:11:28;16.90;99.90
8420;DHT22;4247;48.550;8.822;2022-09-09T07:13:57;17.00;99.90
8420;DHT22;4247;48.550;8.822;2022-09-09T07:16:27;17.20;99.90
8420;DHT22;4247;48.550;8.822;2022-09-09T07:18:55;17.20;99.90
8420;DHT22;4247;48.550;8.822;2022-09-09T07:21:24;17.30;99.90
8420;DHT22;4247;48.550;8.822;2022-09-09T07:23:52;17.40;99.90
8420;DHT22;4247;48.550;8.822;2022-09-09T07:26:21;17.40;99.90
8420;DHT22;4247;48.550;8.822;2022-09-09T07:28:49;17.50;99.90
8420;DHT22;4247;48.550;8.822;2022-09-09T07:31:17;17.50;99.90
8420;DHT22;4247;48.550;8.822;2022-09-09T07:33:47;17.50;99.90
8420;DHT22;4247;48.550;8.822;2022-09-09T07:36:18;17.60;99.90
8420;DHT22;4247;48.550;8.822;2022-09-09T07:38:48;17.60;99.90
8420;DHT22;4247;48.550;8.822;2022-09-09T07:41:18;17.70;99.90
8420;DHT22;4247;48.550;8.822;2022-09-09T07:43:47;17.80;99.90
8420;DHT22;4247;48.550;8.822;2022-09-09T07:46:16;17.70;99.90
8420;DHT22;4247;48.550;8.822;2022-09-09T07:48:47;17.80;99.90
8420;DHT22;4247;48.550;8.822;2022-09-09T07:51:18;17.90;99.90
8420;DHT22;4247;48.550;8.822;2022-09-09T07:53:47;17.90;99.90
8420;DHT22;4247;48.550;8.822;2022-09-09T07:56:17;18.00;99.90
8420;DHT22;4247;48.550;8.822;2022-09-09T07:58:45;18.10;99.90
8420;DHT22;4247;48.550;8.822;2022-09-09T08:01:15;18.10;99.90
8420;DHT22;4247;48.550;8.822;2022-09-09T08:03:42;18.20;99.90
8420;DHT22;4247;48.550;8.822;2022-09-09T08:06:12;18.20;99.90
8420;DHT22;4247;48.550;8.822;2022-09-09T08:08:40;18.20;99.90
8420;DHT22;4247;48.550;8.822;2022-09-09T08:11:10;18.30;99.90
8420;DHT22;4247;48.550;8.822;2022-09-09T08:13:38;18.20;99.90
8420;DHT22;4247;48.550;8.822;2022-09-09T08:16:08;18.20;99.90
8420;DHT22;4247;48.550;8.822;2022-09-09T08:18:35;18.20;99.90
8420;DHT22;4247;48.550;8.822;2022-09-09T08:21:12;18.30;99.90
8420;DHT22;4247;48.550;8.822;2022-09-09T08:23:39;18.50;99.90
8420;DHT22;4247;48.550;8.822;2022-09-09T08:26:12;18.70;99.90
8420;DHT22;4247;48.550;8.822;2022-09-09T08:28:39;19.00;99.90
8420;DHT22;4247;48.550;8.822;2022-09-09T08:31:08;19.10;99.90
8420;DHT22;4247;48.550;8.822;2022-09-09T08:33:35;19.40;99.90
8420;DHT22;4247;48.550;8.822;2022-09-09T08:36:04;19.70;99.90
8420;DHT22;4247;48.550;8.822;2022-09-09T08:38:35;20.00;99.90
8420;DHT22;4247;48.550;8.822;2022-09-09T08:41:17;20.30;99.90
8420;DHT22;4247;48.550;8.822;2022-09-09T08:44:00;20.30;99.90
8420;DHT22;4247;48.550;8.822;2022-09-09T08:46:34;20.50;99.90
8420;DHT22;4247;48.550;8.822;2022-09-09T08:49:11;20.40;99.90
8420;DHT22;4247;48.550;8.822;2022-09-09T08:51:41;20.40;99.90
8420;DHT22;4247;48.550;8.822;2022-09-09T08:54:10;20.70;99.90
8420;DHT22;4247;48.550;8.822;2022-09-09T08:56:42;20.80;99.90
8420;DHT22;4247;48.550;8.822;2022-09-09T08:59:11;21.00;99.90
8420;DHT22;4247;48.550;8.822;2022-09-09T09:01:49;21.20;99.90
8420;DHT22;4247;48.550;8.822;2022-09-09T09:04:37;21.40;99.90
8420;DHT22;4247;48.550;8.822;2022-09-09T09:07:15;21.50;99.90
8420;DHT22;4247;48.550;8.822;2022-09-09T09:09:53;21.60;99.90
8420;DHT22;4247;48.550;8.822;2022-09-09T09:12:26;21.70;99.90
8420;DHT22;4247;48.550;8.822;2022-09-09T09:14:54;21.50;99.90
8420;DHT22;4247;48.550;8.822;2022-09-09T09:17:26;21.50;99.90
8420;DHT22;4247;48.550;8.822;2022-09-09T09:19:57;21.60;99.90
8420;DHT22;4247;48.550;8.822;2022-09-09T09:22:31;21.60;99.90
8420;DHT22;4247;48.550;8.822;2022-09-09T09:25:08;21.50;99.90
8420;DHT22;4247;48.550;8.822;2022-09-09T09:27:46;21.60;99.90
8420;DHT22;4247;48.550;8.822;2022-09-09T09:30:18;21.70;99.90
8420;DHT22;4247;48.550;8.822;2022-09-09T09:32:51;21.70;99.90
8420;DHT22;4247;48.550;8.822;2022-09-09T09:35:19;21.80;99.90
8420;DHT22;4247;48.550;8.822;2022-09-09T09:37:49;21.80;98.40
8420;DHT22;4247;48.550;8.822;2022-09-09T09:40:19;22.00;99.20
8420;DHT22;4247;48.550;8.822;2022-09-09T09:42:51;22.10;99.80
8420;DHT22;4247;48.550;8.822;2022-09-09T09:45:26;22.00;99.30
8420;DHT22;4247;48.550;8.822;2022-09-09T09:48:03;21.80;99.90
8420;DHT22;4247;48.550;8.822;2022-09-09T09:50:32;21.80;99.80
8420;DHT22;4247;48.550;8.822;2022-09-09T09:53:02;21.80;99.90
8420;DHT22;4247;48.550;8.822;2022-09-09T09:55:33;21.80;99.70
8420;DHT22;4247;48.550;8.822;2022-09-09T09:58:05;21.80;99.90
8420;DHT22;4247;48.550;8.822;2022-09-09T10:00:32;21.80;98.80
8420;DHT22;4247;48.550;8.822;2022-09-09T10:03:01;21.90;98.40
8420;DHT22;4247;48.550;8.822;2022-09-09T10:05:30;22.10;97.50
8420;DHT22;4247;48.550;8.822;2022-09-09T10:08:04;22.20;98.20
8420;DHT22;4247;48.550;8.822;2022-09-09T10:10:46;22.20;98.90
8420;DHT22;4247;48.550;8.822;2022-09-09T10:13:21;22.20;96.60
8420;DHT22;4247;48.550;8.822;2022-09-09T10:15:59;22.30;93.90
8420;DHT22;4247;48.550;8.822;2022-09-09T10:18:45;22.10;97.80
8420;DHT22;4247;48.550;8.822;2022-09-09T10:21:24;22.00;98.60
8420;DHT22;4247;48.550;8.822;2022-09-09T10:24:07;22.20;98.30
8420;DHT22;4247;48.550;8.822;2022-09-09T10:26:45;22.20;98.10
8420;DHT22;4247;48.550;8.822;2022-09-09T10:29:27;22.30;95.40
8420;DHT22;4247;48.550;8.822;2022-09-09T10:32:06;22.40;97.20
8420;DHT22;4247;48.550;8.822;2022-09-09T10:34:50;22.40;94.50
8420;DHT22;4247;48.550;8.822;2022-09-09T10:37:25;22.50;96.40
8420;DHT22;4247;48.550;8.822;2022-09-09T10:40:02;22.40;95.10
8420;DHT22;4247;48.550;8.822;2022-09-09T10:42:33;22.20;96.60
8420;DHT22;4247;48.550;8.822;2022-09-09T10:45:17;22.00;96.80
8420;DHT22;4247;48.550;8.822;2022-09-09T10:47:55;21.70;96.20
8420;DHT22;4247;48.550;8.822;2022-09-09T10:50:48;21.30;96.30
8420;DHT22;4247;48.550;8.822;2022-09-09T10:53:25;20.70;96.90
8420;DHT22;4247;48.550;8.822;2022-09-09T10:56:01;20.40;98.90
8420;DHT22;4247;48.550;8.822;2022-09-09T10:58:35;19.90;99.90
8420;DHT22;4247;48.550;8.822;2022-09-09T11:01:12;19.70;99.90
8420;DHT22;4247;48.550;8.822;2022-09-09T11:04:04;19.60;99.90
8420;DHT22;4247;48.550;8.822;2022-09-09T11:06:36;19.20;99.90
8420;DHT22;4247;48.550;8.822;2022-09-09T11:09:04;19.00;99.90
8420;DHT22;4247;48.550;8.822;2022-09-09T11:11:37;18.90;99.90
8420;DHT22;4247;48.550;8.822;2022-09-09T11:14:11;18.80;99.90
8420;DHT22;4247;48.550;8.822;2022-09-09T11:16:46;18.90;99.90
8420;DHT22;4247;48.550;8.822;2022-09-09T11:19:20;18.80;99.90
8420;DHT22;4247;48.550;8.822;2022-09-09T11:21:49;18.80;99.90
8420;DHT22;4247;48.550;8.822;2022-09-09T11:24:22;18.70;99.90
8420;DHT22;4247;48.550;8.822;2022-09-09T11:26:52;18.80;99.90
8420;DHT22;4247;48.550;8.822;2022-09-09T11:35:57;18.80;99.90
8420;DHT22;4247;48.550;8.822;2022-09-09T11:38:29;18.90;99.90
8420;DHT22;4247;48.550;8.822;2022-09-09T11:41:00;19.00;99.90
8420;DHT22;4247;48.550;8.822;2022-09-09T11:43:30;19.00;99.90
8420;DHT22;4247;48.550;8.822;2022-09-09T11:45:59;19.10;99.90
8420;DHT22;4247;48.550;8.822;2022-09-09T11:48:34;19.20;99.90
8420;DHT22;4247;48.550;8.822;2022-09-09T11:51:07;19.30;99.90
8420;DHT22;4247;48.550;8.822;2022-09-09T11:53:35;19.40;99.90
8420;DHT22;4247;48.550;8.822;2022-09-09T11:56:13;19.40;99.90
8420;DHT22;4247;48.550;8.822;2022-09-09T11:58:53;19.50;99.90
8420;DHT22;4247;48.550;8.822;2022-09-09T12:01:33;19.60;99.90
8420;DHT22;4247;48.550;8.822;2022-09-09T12:04:31;19.60;99.90
8420;DHT22;4247;48.550;8.822;2022-09-09T12:07:04;19.50;99.90
8420;DHT22;4247;48.550;8.822;2022-09-09T12:09:46;19.50;99.90
8420;DHT22;4247;48.550;8.822;2022-09-09T12:12:32;19.50;99.90
8420;DHT22;4247;48.550;8.822;2022-09-09T12:15:21;19.60;99.90
8420;DHT22;4247;48.550;8.822;2022-09-09T12:17:49;19.70;99.90
8420;DHT22;4247;48.550;8.822;2022-09-09T12:20:23;19.70;99.90
8420;DHT22;4247;48.550;8.822;2022-09-09T12:23:03;19.80;99.90
8420;DHT22;4247;48.550;8.822;2022-09-09T12:25:46;19.80;99.90
8420;DHT22;4247;48.550;8.822;2022-09-09T12:28:17;19.80;99.90
8420;DHT22;4247;48.550;8.822;2022-09-09T12:30:50;19.90;99.90
8420;DHT22;4247;48.550;8.822;2022-09-09T12:33:19;19.90;99.80
8420;DHT22;4247;48.550;8.822;2022-09-09T12:35:52;19.80;99.20
8420;DHT22;4247;48.550;8.822;2022-09-09T12:38:29;19.90;99.50
8420;DHT22;4247;48.550;8.822;2022-09-09T12:40:58;19.80;99.10
8420;DHT22;4247;48.550;8.822;2022-09-09T12:43:27;19.90;99.90
8420;DHT22;4247;48.550;8.822;2022-09-09T12:45:56;19.90;99.90
8420;DHT22;4247;48.550;8.822;2022-09-09T12:48:32;20.00;99.90
8420;DHT22;4247;48.550;8.822;2022-09-09T12:51:01;20.00;99.90
8420;DHT22;4247;48.550;8.822;2022-09-09T12:53:34;20.00;99.90
8420;DHT22;4247;48.550;8.822;2022-09-09T12:56:04;20.00;99.90
8420;DHT22;4247;48.550;8.822;2022-09-09T12:58:35;20.00;99.70
8420;DHT22;4247;48.550;8.822;2022-09-09T13:01:04;19.90;98.40
8420;DHT22;4247;48.550;8.822;2022-09-09T13:03:33;19.90;98.50
8420;DHT22;4247;48.550;8.822;2022-09-09T13:06:16;19.90;98.40
8420;DHT22;4247;48.550;8.822;2022-09-09T13:08:48;20.00;98.00
8420;DHT22;4247;48.550;8.822;2022-09-09T13:11:19;20.00;97.80
8420;DHT22;4247;48.550;8.822;2022-09-09T13:13:51;20.20;98.00
8420;DHT22;4247;48.550;8.822;2022-09-09T13:16:20;20.30;98.20
8420;DHT22;4247;48.550;8.822;2022-09-09T13:18:51;20.30;98.00
8420;DHT22;4247;48.550;8.822;2022-09-09T13:21:31;20.30;96.70
8420;DHT22;4247;48.550;8.822;2022-09-09T13:23:58;20.40;97.80
8420;DHT22;4247;48.550;8.822;2022-09-09T13:26:29;20.40;96.80
8420;DHT22;4247;48.550;8.822;2022-09-09T13:29:09;20.30;96.30
8420;DHT22;4247;48.550;8.822;2022-09-09T13:31:40;20.30;96.80
8420;DHT22;4247;48.550;8.822;2022-09-09T13:34:11;20.20;96.70
8420;DHT22;4247;48.550;8.822;2022-09-09T13:36:41;20.20;97.00
8420;DHT22;4247;48.550;8.822;2022-09-09T13:39:16;20.20;97.10
8420;DHT22;4247;48.550;8.822;2022-09-09T13:41:45;20.30;96.30
8420;DHT22;4247;48.550;8.822;2022-09-09T13:44:18;20.30;96.80
8420;DHT22;4247;48.550;8.822;2022-09-09T13:46:46;20.30;95.80
8420;DHT22;4247;48.550;8.822;2022-09-09T13:49:22;20.20;95.00
8420;DHT22;4247;48.550;8.822;2022-09-09T13:51:51;20.10;94.70
8420;DHT22;4247;48.550;8.822;2022-09-09T13:54:28;20.10;94.10
8420;DHT22;4247;48.550;8.822;2022-09-09T13:56:56;20.10;95.20
8420;DHT22;4247;48.550;8.822;2022-09-09T13:59:26;20.00;95.10
8420;DHT22;4247;48.550;8.822;2022-09-09T14:01:53;20.10;93.90
8420;DHT22;4247;48.550;8.822;2022-09-09T14:04:20;20.10;94.30
8420;DHT22;4247;48.550;8.822;2022-09-09T14:06:47;20.10;93.30
8420;DHT22;4247;48.550;8.822;2022-09-09T14:09:16;20.00;93.60
8420;DHT22;4247;48.550;8.822;2022-09-09T14:11:44;20.10;93.20
8420;DHT22;4247;48.550;8.822;2022-09-09T14:14:11;20.00;93.10
8420;DHT22;4247;48.550;8.822;2022-09-09T14:16:38;20.10;92.90
8420;DHT22;4247;48.550;8.822;2022-09-09T14:19:05;20.10;93.20
8420;DHT22;4247;48.550;8.822;2022-09-09T14:21:32;20.10;94.30
8420;DHT22;4247;48.550;8.822;2022-09-09T14:23:59;20.10;93.40
8420;DHT22;4247;48.550;8.822;2022-09-09T14:26:27;20.10;93.60
8420;DHT22;4247;48.550;8.822;2022-09-09T14:28:55;20.10;93.60
8420;DHT22;4247;48.550;8.822;2022-09-09T14:31:28;20.10;94.30
8420;DHT22;4247;48.550;8.822;2022-09-09T14:33:55;20.10;94.30
8420;DHT22;4247;48.550;8.822;2022-09-09T14:36:22;20.10;94.10
8420;DHT22;4247;48.550;8.822;2022-09-09T14:38:49;20.10;94.80
8420;DHT22;4247;48.550;8.822;2022-09-09T14:41:18;20.10;95.10
8420;DHT22;4247;48.550;8.822;2022-09-09T14:43:49;20.20;95.20
8420;DHT22;4247;48.550;8.822;2022-09-09T14:46:18;20.10;95.30
8420;DHT22;4247;48.550;8.822;2022-09-09T14:48:45;20.20;95.20
8420;DHT22;4247;48.550;8.822;2022-09-09T14:51:15;20.10;94.70
8420;DHT22;4247;48.550;8.822;2022-09-09T14:53:44;20.20;94.80
8420;DHT22;4247;48.550;8.822;2022-09-09T14:56:12;20.20;94.10
8420;DHT22;4247;48.550;8.822;2022-09-09T14:58:39;20.20;94.10
8420;DHT22;4247;48.550;8.822;2022-09-09T15:01:09;20.20;93.90
8420;DHT22;4247;48.550;8.822;2022-09-09T15:03:36;20.20;93.40
8420;DHT22;4247;48.550;8.822;2022-09-09T15:06:07;20.20;93.80
8420;DHT22;4247;48.550;8.822;2022-09-09T15:08:35;20.20;93.90
8420;DHT22;4247;48.550;8.822;2022-09-09T15:11:03;20.20;93.20
8420;DHT22;4247;48.550;8.822;2022-09-09T15:13:33;20.10;92.90
8420;DHT22;4247;48.550;8.822;2022-09-09T15:16:04;20.10;93.20
8420;DHT22;4247;48.550;8.822;2022-09-09T15:18:33;20.00;93.30
8420;DHT22;4247;48.550;8.822;2022-09-09T15:21:01;19.90;93.40
8420;DHT22;4247;48.550;8.822;2022-09-09T15:23:31;19.90;93.70
8420;DHT22;4247;48.550;8.822;2022-09-09T15:26:06;19.90;93.70
8420;DHT22;4247;48.550;8.822;2022-09-09T15:28:34;19.90;94.30
8420;DHT22;4247;48.550;8.822;2022-09-09T15:31:06;20.00;94.60
8420;DHT22;4247;48.550;8.822;2022-09-09T15:33:35;20.00;94.00
8420;DHT22;4247;48.550;8.822;2022-09-09T15:36:13;20.00;94.30
8420;DHT22;4247;48.550;8.822;2022-09-09T15:38:40;20.00;94.70
8420;DHT22;4247;48.550;8.822;2022-09-09T15:41:07;20.00;94.40
8420;DHT22;4247;48.550;8.822;2022-09-09T15:43:35;19.90;95.10
8420;DHT22;4247;48.550;8.822;2022-09-09T15:46:19;19.90;94.70
8420;DHT22;4247;48.550;8.822;2022-09-09T15:48:52;19.90;93.80
8420;DHT22;4247;48.550;8.822;2022-09-09T15:51:20;19.80;93.70
8420;DHT22;4247;48.550;8.822;2022-09-09T15:53:55;19.90;94.10
8420;DHT22;4247;48.550;8.822;2022-09-09T15:56:22;19.90;94.20
8420;DHT22;4247;48.550;8.822;2022-09-09T15:58:50;20.00;93.70
8420;DHT22;4247;48.550;8.822;2022-09-09T16:01:18;20.00;94.40
8420;DHT22;4247;48.550;8.822;2022-09-09T16:03:45;20.10;94.70
8420;DHT22;4247;48.550;8.822;2022-09-09T16:06:14;20.20;94.90
8420;DHT22;4247;48.550;8.822;2022-09-09T16:08:43;20.20;93.50
8420;DHT22;4247;48.550;8.822;2022-09-09T16:11:12;20.10;93.60
8420;DHT22;4247;48.550;8.822;2022-09-09T16:13:41;20.10;94.50
8420;DHT22;4247;48.550;8.822;2022-09-09T16:16:09;20.00;94.40
8420;DHT22;4247;48.550;8.822;2022-09-09T16:18:39;20.00;94.30
8420;DHT22;4247;48.550;8.822;2022-09-09T16:21:08;20.00;94.80
8420;DHT22;4247;48.550;8.822;2022-09-09T16:23:39;19.90;94.60
8420;DHT22;4247;48.550;8.822;2022-09-09T16:26:10;19.80;94.30
8420;DHT22;4247;48.550;8.822;2022-09-09T16:28:38;19.60;94.20
8420;DHT22;4247;48.550;8.822;2022-09-09T16:31:05;19.60;95.10
8420;DHT22;4247;48.550;8.822;2022-09-09T16:33:32;19.60;95.30
8420;DHT22;4247;48.550;8.822;2022-09-09T16:36:05;19.70;97.60
8420;DHT22;4247;48.550;8.822;2022-09-09T16:38:32;19.70;98.30